Yotvata, Israel
Current Conditions -  °F | °C
As of 10:00 AM on Sunday 26 Oct 2014 (Local Time) from OJAQ Reporting Station
Clear Clear  
Wind Chill: 70°   Ceiling: Unl
Heat Index: 70°   Visibility: 6mi
Dew Point: 45°   Wind: 5mph
Humidity: 40%   Direction: 10°N
Pressure: 29.94"   Gusts: NA
Location:  29.91°N, 35.07°E
Report Text: OJAQ 260700Z 01004KT CAVOK 21/07 Q1014 NOSIG
Loading
Personal Weather Stations






























Interactive Weather Map
Tropical Storm Tracking
New forecast layout! Learn more

10-Day Weather Forecast

Advertisements
Track Severe Weather on mobile